createdAt,value
2023-04-16T00:02:19.534Z,99944.00
2023-04-16T00:04:52.836Z,99943.40
2023-04-16T00:07:26.151Z,99944.80
2023-04-16T00:09:59.100Z,99942.80
2023-04-16T00:12:32.233Z,99943.40
2023-04-16T00:15:05.412Z,99943.80
2023-04-16T00:17:38.459Z,99946.00
2023-04-16T00:20:13.381Z,99941.60
2023-04-16T00:22:46.380Z,99949.40
2023-04-16T00:25:19.322Z,99943.80
2023-04-16T00:27:52.551Z,99938.60
2023-04-16T00:30:25.571Z,99943.00
2023-04-16T00:32:58.830Z,99944.60
2023-04-16T00:35:31.822Z,99939.00
2023-04-16T00:38:04.886Z,99940.60
2023-04-16T00:40:37.825Z,99951.00
2023-04-16T00:43:10.824Z,99949.20
2023-04-16T00:45:44.429Z,99945.60
2023-04-16T00:48:17.767Z,99949.40
2023-04-16T00:50:51.453Z,99955.20
2023-04-16T00:53:24.927Z,99958.60
2023-04-16T00:55:58.903Z,99957.40
2023-04-16T00:58:32.689Z,99959.00
2023-04-16T01:01:06.271Z,99952.60
2023-04-16T01:03:45.102Z,99952.40
2023-04-16T01:06:19.741Z,99961.00
2023-04-16T01:08:52.851Z,99958.20
2023-04-16T01:11:26.051Z,99961.40
2023-04-16T01:13:59.048Z,99965.20
2023-04-16T01:16:32.310Z,99968.00
2023-04-16T01:19:05.440Z,99968.00
2023-04-16T01:21:38.507Z,99970.40
2023-04-16T01:24:11.969Z,99973.20
2023-04-16T01:26:45.688Z,99973.20
2023-04-16T01:29:18.818Z,99977.40
2023-04-16T01:31:52.256Z,99977.40
2023-04-16T01:34:31.865Z,99976.20
2023-04-16T01:37:04.966Z,99978.80
2023-04-16T01:39:38.045Z,99979.60
2023-04-16T01:42:11.091Z,99978.80
2023-04-16T01:44:44.077Z,99978.40
2023-04-16T01:47:17.360Z,99974.60
2023-04-16T01:49:50.665Z,99972.20
2023-04-16T01:52:23.630Z,99971.40
2023-04-16T01:54:56.677Z,99969.00
2023-04-16T01:57:29.953Z,99970.20
2023-04-16T02:00:03.407Z,99975.40
2023-04-16T02:02:38.200Z,99973.40
2023-04-16T02:05:11.989Z,99973.20
2023-04-16T02:07:44.990Z,99974.00
2023-04-16T02:10:18.205Z,99977.40
2023-04-16T02:12:51.739Z,99979.20
2023-04-16T02:15:25.572Z,99979.40
2023-04-16T02:17:59.130Z,99978.20
2023-04-16T02:20:32.199Z,99980.80
2023-04-16T02:23:06.586Z,99989.00
2023-04-16T02:25:42.952Z,99988.80
2023-04-16T02:28:18.726Z,99992.20
2023-04-16T02:30:52.477Z,99990.80
2023-04-16T02:33:26.958Z,99991.40
2023-04-16T02:36:06.740Z,99996.20
2023-04-16T02:38:39.786Z,99996.60
2023-04-16T02:41:12.804Z,99998.20
2023-04-16T02:43:48.453Z,100004.20
2023-04-16T02:46:21.516Z,100001.00
2023-04-16T02:48:54.723Z,100002.60
2023-04-16T02:51:28.012Z,100005.40
2023-04-16T02:54:01.088Z,100013.20
2023-04-16T02:56:34.303Z,100012.20
2023-04-16T02:59:08.117Z,100015.20
2023-04-16T03:01:41.586Z,100013.00
2023-04-16T03:04:14.587Z,100019.40
2023-04-16T03:06:47.604Z,100018.80
2023-04-16T03:09:20.773Z,100016.00
2023-04-16T03:11:53.766Z,100019.40
2023-04-16T03:14:26.728Z,100028.20
2023-04-16T03:17:00.045Z,100027.80
2023-04-16T03:19:33.050Z,100032.00
2023-04-16T03:22:06.393Z,100034.80
2023-04-16T03:24:40.104Z,100038.40
2023-04-16T03:27:13.273Z,100042.20
2023-04-16T03:29:46.252Z,100040.80
2023-04-16T03:32:19.326Z,100039.80
2023-04-16T03:34:52.338Z,100038.00
2023-04-16T03:37:25.312Z,100047.00
2023-04-16T03:39:58.682Z,100048.40
2023-04-16T03:42:31.746Z,100048.60
2023-04-16T03:45:05.093Z,100048.20
2023-04-16T03:47:38.551Z,100050.60
2023-04-16T03:50:13.555Z,100054.00
2023-04-16T03:52:47.169Z,100059.20
2023-04-16T03:55:21.171Z,100063.40
2023-04-16T03:57:54.064Z,100065.60
2023-04-16T04:00:27.246Z,100067.00
2023-04-16T04:03:05.017Z,100072.20
2023-04-16T04:05:41.008Z,100075.40
2023-04-16T04:08:15.634Z,100070.20
2023-04-16T04:10:48.775Z,100078.60
2023-04-16T04:13:22.308Z,100087.80
2023-04-16T04:15:55.479Z,100093.20
2023-04-16T04:18:29.104Z,100089.40
2023-04-16T04:21:06.068Z,100098.40
2023-04-16T04:23:41.721Z,100096.40
2023-04-16T04:26:15.003Z,100100.00
2023-04-16T04:28:47.932Z,100094.80
2023-04-16T04:31:21.816Z,100093.40
2023-04-16T04:33:54.924Z,100093.80
2023-04-16T04:36:28.478Z,100098.80
2023-04-16T04:39:01.536Z,100101.00
2023-04-16T04:41:34.622Z,100108.20
2023-04-16T04:44:08.380Z,100104.80
2023-04-16T04:46:41.475Z,100104.40
2023-04-16T04:49:14.436Z,100103.00
2023-04-16T04:51:47.489Z,100102.00
2023-04-16T04:54:20.689Z,100103.00
2023-04-16T04:56:53.763Z,100099.00
2023-04-16T04:59:27.342Z,100099.60
2023-04-16T05:02:00.855Z,100107.00
2023-04-16T05:04:34.249Z,100104.00
2023-04-16T05:07:07.407Z,100109.80
2023-04-16T05:09:40.448Z,100113.80
2023-04-16T05:12:13.366Z,100114.60
2023-04-16T05:14:46.485Z,100120.60
2023-04-16T05:17:19.864Z,100124.40
2023-04-16T05:19:53.427Z,100127.60
2023-04-16T05:22:26.397Z,100130.60
2023-04-16T05:24:59.423Z,100132.20
2023-04-16T05:27:32.479Z,100134.20
2023-04-16T05:30:05.671Z,100138.60
2023-04-16T05:32:40.120Z,100144.60
2023-04-16T05:35:16.677Z,100148.00
2023-04-16T05:37:50.356Z,100146.00
2023-04-16T05:40:23.671Z,100151.80
2023-04-16T05:42:56.584Z,100151.20
2023-04-16T05:45:29.614Z,100154.20
2023-04-16T05:48:02.573Z,100152.20
2023-04-16T05:50:35.706Z,100156.60
2023-04-16T05:53:11.112Z,100157.40
2023-04-16T05:55:44.065Z,100162.40
2023-04-16T05:58:17.154Z,100168.20
2023-04-16T06:00:50.220Z,100165.40
2023-04-16T06:03:24.711Z,100170.20
2023-04-16T06:05:57.884Z,100169.20
2023-04-16T06:08:31.067Z,100173.20
2023-04-16T06:11:04.654Z,100175.80
2023-04-16T06:13:37.922Z,100176.20
2023-04-16T06:16:11.578Z,100174.20
2023-04-16T06:18:44.591Z,100181.60
2023-04-16T06:21:17.690Z,100188.60
2023-04-16T06:23:50.884Z,100192.80
2023-04-16T06:26:24.247Z,100193.40
2023-04-16T06:28:57.173Z,100198.00
2023-04-16T06:31:31.157Z,100204.00
2023-04-16T06:34:04.298Z,100204.00
2023-04-16T06:36:37.911Z,100204.20
2023-04-16T06:39:10.955Z,100205.60
2023-04-16T06:41:44.132Z,100210.40
2023-04-16T06:44:17.196Z,100211.40
2023-04-16T06:46:50.250Z,100207.00
2023-04-16T06:49:23.319Z,100200.40
2023-04-16T06:51:56.525Z,100201.40
2023-04-16T06:54:29.528Z,100199.20
2023-04-16T06:57:02.555Z,100202.40
2023-04-16T06:59:35.565Z,100209.20
2023-04-16T07:02:09.415Z,100213.40
2023-04-16T07:04:42.540Z,100209.60
2023-04-16T07:07:15.865Z,100215.80
2023-04-16T07:09:48.858Z,100215.80
2023-04-16T07:12:23.186Z,100222.00
2023-04-16T07:14:56.834Z,100225.20
2023-04-16T07:17:30.225Z,100229.60
2023-04-16T07:20:03.139Z,100230.80
2023-04-16T07:22:36.111Z,100236.20
2023-04-16T07:25:10.658Z,100243.40
2023-04-16T07:27:43.916Z,100242.00
2023-04-16T07:30:17.160Z,100240.40
2023-04-16T07:32:50.125Z,100240.00
2023-04-16T07:35:23.173Z,100245.80
2023-04-16T07:37:56.099Z,100246.60
2023-04-16T07:40:29.257Z,100257.00
2023-04-16T07:43:02.330Z,100259.80
2023-04-16T07:45:35.290Z,100261.00
2023-04-16T07:48:09.023Z,100262.80
2023-04-16T07:50:43.765Z,100261.20
2023-04-16T07:53:16.686Z,100265.80
2023-04-16T07:55:49.638Z,100264.40
2023-04-16T07:58:22.760Z,100268.40
2023-04-16T08:00:55.746Z,100265.20
2023-04-16T08:03:29.252Z,100265.40
2023-04-16T08:06:02.439Z,100267.40
2023-04-16T08:08:36.487Z,100273.60
2023-04-16T08:11:09.677Z,100273.80
2023-04-16T08:13:42.674Z,100272.00
2023-04-16T08:16:15.621Z,100273.80
2023-04-16T08:18:48.549Z,100273.00
2023-04-16T08:21:21.543Z,100273.40
2023-04-16T08:23:54.582Z,100275.40
2023-04-16T08:26:27.552Z,100267.60
2023-04-16T08:29:00.565Z,100267.00
2023-04-16T08:31:34.088Z,100267.00
2023-04-16T08:34:07.059Z,100267.40
2023-04-16T08:36:40.009Z,100269.20
2023-04-16T08:39:13.363Z,100268.80
2023-04-16T08:41:49.001Z,100266.00
2023-04-16T08:44:29.189Z,100274.00
2023-04-16T08:47:02.875Z,100281.40
2023-04-16T08:49:43.409Z,100276.60
2023-04-16T08:52:20.461Z,100277.80
2023-04-16T08:55:05.676Z,100283.00
2023-04-16T08:57:53.621Z,100289.80
2023-04-16T09:00:27.242Z,100292.20
2023-04-16T09:03:00.308Z,100297.20
2023-04-16T09:05:34.953Z,100297.60
2023-04-16T09:08:08.269Z,100296.40
2023-04-16T09:10:41.382Z,100300.00
2023-04-16T09:13:16.657Z,100297.20
2023-04-16T09:15:53.273Z,100295.60
2023-04-16T09:18:26.346Z,100300.00
2023-04-16T09:20:59.759Z,100298.60
2023-04-16T09:23:33.015Z,100296.80
2023-04-16T09:26:07.761Z,100297.80
2023-04-16T09:28:51.008Z,100298.20
2023-04-16T09:31:24.593Z,100300.60
2023-04-16T09:34:09.803Z,100296.60
2023-04-16T09:36:42.803Z,100296.60
2023-04-16T09:39:21.377Z,100303.00
2023-04-16T09:41:58.096Z,100304.00
2023-04-16T09:44:40.167Z,100308.40
2023-04-16T09:47:13.706Z,100313.60
2023-04-16T09:49:48.353Z,100316.00
2023-04-16T09:52:23.682Z,100322.80
2023-04-16T09:54:57.541Z,100328.60
2023-04-16T09:57:30.941Z,100331.60
2023-04-16T10:00:10.452Z,100326.80
2023-04-16T10:02:47.039Z,100327.40
2023-04-16T10:05:22.954Z,100336.20
2023-04-16T10:08:01.079Z,100333.60
2023-04-16T10:10:35.453Z,100332.80
2023-04-16T10:13:08.788Z,100331.00
2023-04-16T10:15:42.172Z,100336.40
2023-04-16T10:18:15.861Z,100335.60
2023-04-16T10:20:49.276Z,100331.60
2023-04-16T10:23:22.726Z,100332.00
2023-04-16T10:25:57.767Z,100327.40
2023-04-16T10:28:31.688Z,100335.00
2023-04-16T10:31:07.037Z,100334.40
2023-04-16T10:33:43.528Z,100334.80
2023-04-16T10:36:18.688Z,100328.60
2023-04-16T10:38:53.384Z,100337.00
2023-04-16T10:41:26.914Z,100333.40
2023-04-16T10:44:10.719Z,100337.80
2023-04-16T10:46:45.572Z,100332.40
2023-04-16T10:49:20.486Z,100343.00
2023-04-16T10:52:02.384Z,100340.60
2023-04-16T10:54:38.183Z,100335.40
2023-04-16T10:57:16.454Z,100330.80
2023-04-16T10:59:51.534Z,100347.80
2023-04-16T11:02:29.781Z,100343.20
2023-04-16T11:05:04.823Z,100344.00
2023-04-16T11:07:39.680Z,100349.00
2023-04-16T11:10:15.985Z,100345.00
2023-04-16T11:12:50.544Z,100350.20
2023-04-16T11:15:24.961Z,100347.40
2023-04-16T11:17:58.028Z,100338.40
2023-04-16T11:20:31.758Z,100334.80
2023-04-16T11:23:04.791Z,100341.40
2023-04-16T11:25:38.147Z,100347.60
2023-04-16T11:28:11.107Z,100347.80
2023-04-16T11:30:44.764Z,100340.60
2023-04-16T11:33:17.742Z,100346.80
2023-04-16T11:36:00.015Z,100352.20
2023-04-16T11:38:41.321Z,100350.60
2023-04-16T11:41:20.335Z,100362.20
2023-04-16T11:43:53.368Z,100358.80
2023-04-16T11:46:38.726Z,100364.00
2023-04-16T11:49:12.088Z,100367.20
2023-04-16T11:51:48.039Z,100364.00
2023-04-16T11:54:28.107Z,100360.20
2023-04-16T11:57:01.396Z,100360.60
2023-04-16T11:59:34.592Z,100362.80
2023-04-16T12:02:07.898Z,100363.40
2023-04-16T12:04:41.415Z,100367.40
2023-04-16T12:07:15.958Z,100357.40
2023-04-16T12:09:48.964Z,100352.40
2023-04-16T12:12:32.508Z,100349.20
2023-04-16T12:15:06.823Z,100361.20
2023-04-16T12:17:41.004Z,100363.80
2023-04-16T12:20:16.760Z,100357.00
2023-04-16T12:22:52.947Z,100354.80
2023-04-16T12:25:27.459Z,100353.40
2023-04-16T12:28:00.411Z,100349.80
2023-04-16T12:30:33.732Z,100356.20
2023-04-16T12:33:22.565Z,100352.60
2023-04-16T12:35:55.773Z,100346.00
2023-04-16T12:38:28.833Z,100348.40
2023-04-16T12:41:02.487Z,100346.20
2023-04-16T12:43:35.587Z,100347.80
2023-04-16T12:46:08.596Z,100351.00
2023-04-16T12:48:41.806Z,100354.40
2023-04-16T12:51:14.740Z,100352.00
2023-04-16T12:53:47.727Z,100352.80
2023-04-16T12:56:21.048Z,100354.80
2023-04-16T12:58:54.387Z,100364.80
2023-04-16T13:01:27.885Z,100367.20
2023-04-16T13:04:01.141Z,100368.20
2023-04-16T13:06:36.996Z,100369.40
2023-04-16T13:09:10.595Z,100369.80
2023-04-16T13:11:43.702Z,100366.40
2023-04-16T13:14:35.848Z,100367.40
2023-04-16T13:17:08.896Z,100363.40
2023-04-16T13:19:41.957Z,100362.60
2023-04-16T13:22:14.956Z,100367.40
2023-04-16T13:24:47.902Z,100366.80
2023-04-16T13:27:21.086Z,100366.00
2023-04-16T13:29:54.070Z,100362.60
2023-04-16T13:32:27.090Z,100359.60
2023-04-16T13:35:00.401Z,100359.20
2023-04-16T13:37:33.310Z,100361.00
2023-04-16T13:40:07.268Z,100359.40
2023-04-16T13:42:40.182Z,100351.00
2023-04-16T13:45:13.893Z,100356.00
2023-04-16T13:47:47.873Z,100345.60
2023-04-16T13:50:21.117Z,100357.00
2023-04-16T13:52:54.169Z,100356.40
2023-04-16T13:55:27.208Z,100353.20
2023-04-16T13:58:00.752Z,100345.60
2023-04-16T14:00:33.930Z,100350.60
2023-04-16T14:03:07.142Z,100349.20
2023-04-16T14:05:41.462Z,100343.40
2023-04-16T14:08:15.054Z,100345.80
2023-04-16T14:10:48.276Z,100349.00
2023-04-16T14:13:21.932Z,100345.80
2023-04-16T14:15:56.789Z,100347.60
2023-04-16T14:18:29.902Z,100348.20
2023-04-16T14:21:03.358Z,100347.60
2023-04-16T14:23:36.345Z,100347.80
2023-04-16T14:26:09.807Z,100345.80
2023-04-16T14:28:42.821Z,100349.80
2023-04-16T14:31:17.377Z,100348.60
2023-04-16T14:33:50.333Z,100345.80
2023-04-16T14:36:23.293Z,100346.20
2023-04-16T14:38:56.428Z,100351.00
2023-04-16T14:41:29.925Z,100349.00
2023-04-16T14:44:04.434Z,100353.00
2023-04-16T14:46:38.796Z,100353.00
2023-04-16T14:49:12.543Z,100353.60
2023-04-16T14:51:46.533Z,100359.40
2023-04-16T14:54:19.531Z,100356.00
2023-04-16T14:56:52.681Z,100357.00
2023-04-16T14:59:25.766Z,100359.40
2023-04-16T15:01:59.860Z,100362.40
2023-04-16T15:04:32.952Z,100364.00
2023-04-16T15:07:06.318Z,100368.80
2023-04-16T15:09:40.021Z,100368.80
2023-04-16T15:12:12.976Z,100366.00
2023-04-16T15:14:46.202Z,100368.00
2023-04-16T15:17:19.477Z,100371.20
2023-04-16T15:19:53.764Z,100369.20
2023-04-16T15:22:27.494Z,100372.40
2023-04-16T15:25:00.464Z,100370.60
2023-04-16T15:27:33.492Z,100372.40
2023-04-16T15:30:07.617Z,100374.60
2023-04-16T15:32:40.733Z,100383.00
2023-04-16T15:35:15.038Z,100377.60
2023-04-16T15:37:47.982Z,100376.60
2023-04-16T15:40:21.266Z,100380.40
2023-04-16T15:42:54.538Z,100384.40
2023-04-16T15:45:27.746Z,100380.40
2023-04-16T15:48:01.073Z,100376.00
2023-04-16T15:50:34.470Z,100376.00
2023-04-16T15:53:07.802Z,100381.00
2023-04-16T15:55:40.962Z,100383.60
2023-04-16T15:58:14.688Z,100383.80
2023-04-16T16:00:50.080Z,100379.00
2023-04-16T16:03:23.624Z,100378.80
2023-04-16T16:05:59.242Z,100380.60
2023-04-16T16:08:35.658Z,100379.00
2023-04-16T16:11:08.839Z,100383.20
2023-04-16T16:13:41.952Z,100379.60
2023-04-16T16:16:15.023Z,100387.40
2023-04-16T16:18:48.040Z,100389.80
2023-04-16T16:21:21.276Z,100387.20
2023-04-16T16:23:54.450Z,100375.40
2023-04-16T16:26:27.629Z,100380.20
2023-04-16T16:29:01.587Z,100386.20
2023-04-16T16:31:34.731Z,100390.80
2023-04-16T16:34:07.959Z,100391.60
2023-04-16T16:36:40.948Z,100391.20
2023-04-16T16:39:14.133Z,100399.20
2023-04-16T16:41:52.294Z,100400.40
2023-04-16T16:44:25.705Z,100404.40
2023-04-16T16:46:58.864Z,100406.60
2023-04-16T16:49:31.936Z,100411.20
2023-04-16T16:52:05.186Z,100410.60
2023-04-16T16:54:38.220Z,100416.00
2023-04-16T16:57:11.290Z,100421.00
2023-04-16T16:59:44.210Z,100420.60
2023-04-16T17:02:17.256Z,100420.20
2023-04-16T17:04:50.500Z,100423.40
2023-04-16T17:07:23.622Z,100424.00
2023-04-16T17:09:56.711Z,100429.60
2023-04-16T17:12:29.821Z,100438.00
2023-04-16T17:15:03.165Z,100436.20
2023-04-16T17:17:36.150Z,100435.80
2023-04-16T17:20:12.616Z,100436.20
2023-04-16T17:22:46.172Z,100441.80
2023-04-16T17:25:19.349Z,100438.40
2023-04-16T17:27:52.514Z,100442.80
2023-04-16T17:30:27.612Z,100448.60
2023-04-16T17:33:00.776Z,100447.00
2023-04-16T17:35:34.340Z,100446.00
2023-04-16T17:38:07.540Z,100445.60
2023-04-16T17:40:40.655Z,100451.00
2023-04-16T17:43:13.676Z,100459.20
2023-04-16T17:45:46.937Z,100465.20
2023-04-16T17:48:20.409Z,100472.40
2023-04-16T17:50:53.447Z,100476.80
2023-04-16T17:53:26.526Z,100481.60
2023-04-16T17:55:59.629Z,100480.40
2023-04-16T17:58:35.364Z,100481.00
2023-04-16T18:01:08.680Z,100480.80
2023-04-16T18:03:42.381Z,100486.80
2023-04-16T18:06:15.708Z,100485.40
2023-04-16T18:08:48.824Z,100490.60
2023-04-16T18:11:22.368Z,100497.20
2023-04-16T18:13:55.385Z,100506.40
2023-04-16T18:16:28.725Z,100508.60
2023-04-16T18:19:01.858Z,100505.40
2023-04-16T18:21:35.673Z,100519.40
2023-04-16T18:24:10.186Z,100520.60
2023-04-16T18:26:46.642Z,100522.40
2023-04-16T18:29:24.326Z,100530.00
2023-04-16T18:31:59.161Z,100529.00
2023-04-16T18:34:32.317Z,100527.40
2023-04-16T18:37:05.653Z,100524.20
2023-04-16T18:39:38.820Z,100525.40
2023-04-16T18:42:11.911Z,100530.00
2023-04-16T18:44:44.806Z,100534.60
2023-04-16T18:47:18.042Z,100529.80
2023-04-16T18:49:51.071Z,100535.60
2023-04-16T18:52:24.240Z,100538.40
2023-04-16T18:54:57.776Z,100539.20
2023-04-16T18:57:30.867Z,100545.60
2023-04-16T19:00:09.591Z,100550.80
2023-04-16T19:02:43.050Z,100549.20
2023-04-16T19:05:16.290Z,100555.00
2023-04-16T19:07:49.500Z,100559.60
2023-04-16T19:10:22.674Z,100563.20
2023-04-16T19:12:56.625Z,100560.40
2023-04-16T19:15:31.652Z,100568.60
2023-04-16T19:18:07.105Z,100571.80
2023-04-16T19:20:40.681Z,100573.00
2023-04-16T19:23:14.110Z,100574.60
2023-04-16T19:25:47.200Z,100579.40
2023-04-16T19:28:20.164Z,100577.80
2023-04-16T19:30:56.300Z,100570.20
2023-04-16T19:33:29.399Z,100576.60
2023-04-16T19:36:03.092Z,100576.80
2023-04-16T19:38:36.184Z,100576.20
2023-04-16T19:41:09.283Z,100580.60
2023-04-16T19:43:42.188Z,100574.00
2023-04-16T19:46:15.691Z,100575.60
2023-04-16T19:48:48.780Z,100574.20
2023-04-16T19:51:21.750Z,100574.20
2023-04-16T19:53:56.160Z,100578.80
2023-04-16T19:56:29.328Z,100580.60
2023-04-16T19:59:02.745Z,100580.20
2023-04-16T20:01:36.099Z,100580.40
2023-04-16T20:04:09.554Z,100581.40
2023-04-16T20:06:42.585Z,100586.20
2023-04-16T20:09:15.852Z,100590.40
2023-04-16T20:11:49.060Z,100582.60
2023-04-16T20:14:21.992Z,100591.80
2023-04-16T20:16:55.074Z,100589.60
2023-04-16T20:19:31.684Z,100596.00
2023-04-16T20:22:04.767Z,100595.60
2023-04-16T20:24:38.695Z,100593.20
2023-04-16T20:27:11.570Z,100597.00
2023-04-16T20:29:45.641Z,100592.20
2023-04-16T20:32:18.601Z,100593.20
2023-04-16T20:34:51.641Z,100596.60
2023-04-16T20:37:24.867Z,100597.00
2023-04-16T20:39:57.921Z,100595.80
2023-04-16T20:42:32.694Z,100591.80
2023-04-16T20:45:06.276Z,100593.20
2023-04-16T20:47:39.745Z,100589.20
2023-04-16T20:50:14.231Z,100590.60
2023-04-16T20:52:47.163Z,100588.80
2023-04-16T20:55:20.663Z,100590.80
2023-04-16T20:57:53.611Z,100598.60
2023-04-16T21:00:27.260Z,100597.00
2023-04-16T21:03:00.455Z,100592.40
2023-04-16T21:05:34.085Z,100589.60
2023-04-16T21:08:07.705Z,100590.80
2023-04-16T21:10:43.360Z,100592.20
2023-04-16T21:13:16.528Z,100591.20
2023-04-16T21:15:49.822Z,100593.20
2023-04-16T21:18:22.877Z,100596.00
2023-04-16T21:20:56.888Z,100592.80
2023-04-16T21:23:29.936Z,100588.20
2023-04-16T21:26:03.077Z,100586.00
2023-04-16T21:28:36.111Z,100586.80
2023-04-16T21:31:09.095Z,100581.40
2023-04-16T21:33:42.149Z,100580.40
2023-04-16T21:36:15.141Z,100579.20
2023-04-16T21:38:48.244Z,100583.00
2023-04-16T21:41:21.292Z,100577.00
2023-04-16T21:43:54.266Z,100576.20
2023-04-16T21:46:27.986Z,100577.60
2023-04-16T21:49:01.068Z,100574.20
2023-04-16T21:51:34.217Z,100573.20
2023-04-16T21:54:07.210Z,100574.40
2023-04-16T21:56:40.320Z,100574.60
2023-04-16T21:59:13.570Z,100578.40
2023-04-16T22:01:46.640Z,100574.40
2023-04-16T22:04:26.395Z,100574.40
2023-04-16T22:07:03.340Z,100577.80
2023-04-16T22:09:36.509Z,100572.20
2023-04-16T22:12:10.698Z,100575.40
2023-04-16T22:14:52.268Z,100572.20
2023-04-16T22:17:32.529Z,100569.40
2023-04-16T22:20:08.795Z,100567.80
2023-04-16T22:22:42.030Z,100569.60
2023-04-16T22:25:15.266Z,100565.60
2023-04-16T22:27:48.184Z,100570.80
2023-04-16T22:30:21.392Z,100575.40
2023-04-16T22:32:54.435Z,100570.80
2023-04-16T22:35:27.460Z,100565.80
2023-04-16T22:38:00.396Z,100568.60
2023-04-16T22:40:34.864Z,100570.40
2023-04-16T22:43:08.137Z,100564.60
2023-04-16T22:45:41.316Z,100567.40
2023-04-16T22:48:14.635Z,100564.80
2023-04-16T22:50:51.211Z,100565.20
2023-04-16T22:53:24.277Z,100570.60
2023-04-16T22:55:57.291Z,100569.60
2023-04-16T22:58:30.455Z,100568.80
2023-04-16T23:01:03.563Z,100566.20
2023-04-16T23:03:36.535Z,100567.40
2023-04-16T23:06:10.080Z,100564.80
2023-04-16T23:08:42.981Z,100563.60
2023-04-16T23:11:16.216Z,100571.20
2023-04-16T23:13:49.598Z,100571.00
2023-04-16T23:16:22.770Z,100567.00
2023-04-16T23:18:55.773Z,100569.80
2023-04-16T23:21:28.867Z,100569.40
2023-04-16T23:24:01.831Z,100575.60
2023-04-16T23:26:35.239Z,100573.20
2023-04-16T23:29:08.634Z,100571.00
2023-04-16T23:31:42.010Z,100574.40
2023-04-16T23:34:15.133Z,100575.40
2023-04-16T23:36:48.346Z,100574.00
2023-04-16T23:39:21.300Z,100570.00
2023-04-16T23:41:54.314Z,100565.80
2023-04-16T23:44:27.405Z,100568.20
2023-04-16T23:47:00.625Z,100566.00
2023-04-16T23:49:33.804Z,100565.80
2023-04-16T23:52:07.197Z,100572.00
2023-04-16T23:54:40.210Z,100565.00
2023-04-16T23:57:13.176Z,100566.20
2023-04-16T23:59:46.131Z,100564.20
